createdAt,value
2018-10-21T00:02:22.935Z,9.32
2018-10-21T00:04:51.355Z,9.27
2018-10-21T00:07:19.918Z,9.31
2018-10-21T00:09:49.322Z,9.35
2018-10-21T00:12:17.821Z,9.36
2018-10-21T00:14:46.354Z,9.36
2018-10-21T00:17:14.802Z,9.35
2018-10-21T00:19:43.617Z,9.41
2018-10-21T00:22:12.077Z,9.43
2018-10-21T00:24:40.730Z,9.44
2018-10-21T00:27:09.331Z,9.48
2018-10-21T00:29:37.861Z,9.49
2018-10-21T00:32:06.438Z,9.56
2018-10-21T00:34:34.918Z,9.60
2018-10-21T00:37:03.566Z,9.61
2018-10-21T00:39:32.058Z,9.61
2018-10-21T00:42:00.684Z,9.61
2018-10-21T00:44:29.380Z,9.58
2018-10-21T00:46:57.954Z,9.53
2018-10-21T00:49:26.553Z,9.52
2018-10-21T00:51:55.021Z,9.51
2018-10-21T00:54:23.844Z,9.49
2018-10-21T00:56:52.434Z,9.48
2018-10-21T00:59:21.344Z,9.49
2018-10-21T01:01:49.885Z,9.48
2018-10-21T01:04:18.462Z,9.46
2018-10-21T01:06:46.947Z,9.47
2018-10-21T01:09:15.688Z,9.42
2018-10-21T01:11:44.366Z,9.40
2018-10-21T01:14:12.866Z,9.38
2018-10-21T01:19:05.185Z,9.41
2018-10-21T01:21:33.785Z,9.43
2018-10-21T01:24:02.480Z,9.39
2018-10-21T01:26:31.082Z,9.45
2018-10-21T01:28:59.608Z,9.40
2018-10-21T01:31:28.154Z,9.39
2018-10-21T01:33:56.788Z,9.36
2018-10-21T01:36:25.644Z,9.37
2018-10-21T01:38:54.125Z,9.36
2018-10-21T01:41:22.902Z,9.37
2018-10-21T01:43:51.442Z,9.40
2018-10-21T01:46:19.990Z,9.45
2018-10-21T01:48:48.522Z,9.47
2018-10-21T01:51:17.051Z,9.52
2018-10-21T01:53:45.771Z,9.11
2018-10-21T01:56:14.402Z,9.58
2018-10-21T01:58:43.357Z,9.60
2018-10-21T02:01:11.942Z,9.62
2018-10-21T02:03:40.530Z,9.66
2018-10-21T02:06:08.995Z,9.70
2018-10-21T02:08:38.101Z,9.76
2018-10-21T02:11:06.874Z,9.76
2018-10-21T02:13:35.362Z,9.85
2018-10-21T02:16:04.021Z,9.88
2018-10-21T02:18:32.575Z,9.90
2018-10-21T02:21:01.171Z,9.93
2018-10-21T02:23:29.631Z,10.00
2018-10-21T02:25:58.222Z,10.03
2018-10-21T02:28:26.954Z,9.74
2018-10-21T02:30:55.446Z,10.03
2018-10-21T02:33:24.294Z,10.06
2018-10-21T02:35:52.809Z,10.06
2018-10-21T02:38:21.387Z,10.08
2018-10-21T02:41:30.894Z,10.12
2018-10-21T02:43:59.757Z,10.16
2018-10-21T02:46:28.489Z,10.21
2018-10-21T02:48:57.935Z,10.21
2018-10-21T02:51:26.409Z,10.23
2018-10-21T02:53:54.883Z,10.23
2018-10-21T02:56:23.556Z,10.28
2018-10-21T02:58:52.057Z,10.30
2018-10-21T03:01:20.885Z,10.24
2018-10-21T03:03:49.511Z,10.40
2018-10-21T03:06:18.318Z,10.45
2018-10-21T03:08:46.914Z,10.48
2018-10-21T03:11:15.533Z,10.51
2018-10-21T03:13:44.061Z,10.53
2018-10-21T03:16:12.646Z,10.57
2018-10-21T03:18:41.469Z,10.59
2018-10-21T03:21:10.071Z,10.61
2018-10-21T03:23:38.556Z,10.69
2018-10-21T03:26:07.066Z,10.73
2018-10-21T03:28:35.552Z,10.79
2018-10-21T03:31:04.181Z,10.83
2018-10-21T03:33:33.237Z,10.90
2018-10-21T03:36:01.797Z,10.96
2018-10-21T03:38:30.331Z,11.02
2018-10-21T03:40:59.191Z,11.05
2018-10-21T03:43:27.666Z,11.07
2018-10-21T03:45:56.343Z,11.12
2018-10-21T03:48:24.943Z,11.13
2018-10-21T03:50:53.409Z,10.75
2018-10-21T03:53:22.150Z,11.18
2018-10-21T03:55:50.630Z,11.20
2018-10-21T03:58:19.326Z,11.19
2018-10-21T04:00:49.665Z,11.19
2018-10-21T04:03:18.386Z,11.23
2018-10-21T04:05:46.947Z,11.24
2018-10-21T04:08:15.477Z,11.26
2018-10-21T04:10:43.994Z,11.29
2018-10-21T04:13:12.526Z,11.32
2018-10-21T04:15:41.429Z,10.85
2018-10-21T04:18:09.910Z,11.34
2018-10-21T04:20:38.541Z,11.35
2018-10-21T04:23:07.061Z,11.36
2018-10-21T04:25:37.018Z,11.35
2018-10-21T04:28:06.196Z,11.36
2018-10-21T04:30:35.986Z,11.36
2018-10-21T04:33:10.117Z,11.37
2018-10-21T04:35:38.862Z,11.39
2018-10-21T04:38:26.198Z,11.39
2018-10-21T04:40:54.755Z,11.40
2018-10-21T04:43:23.230Z,11.41
2018-10-21T04:45:51.745Z,11.43
2018-10-21T04:48:20.547Z,11.42
2018-10-21T04:50:49.034Z,11.43
2018-10-21T04:53:17.872Z,11.45
2018-10-21T04:55:46.530Z,11.43
2018-10-21T04:58:15.176Z,11.43
2018-10-21T05:00:45.944Z,11.42
2018-10-21T05:03:14.669Z,11.43
2018-10-21T05:05:43.190Z,11.48
2018-10-21T05:08:11.680Z,11.49
2018-10-21T05:10:40.564Z,11.49
2018-10-21T05:13:09.960Z,11.50
2018-10-21T05:15:39.789Z,11.47
2018-10-21T05:18:08.412Z,11.48
2018-10-21T05:20:37.341Z,11.48
2018-10-21T05:23:06.642Z,11.48
2018-10-21T05:25:35.366Z,11.50
2018-10-21T05:28:05.822Z,11.51
2018-10-21T05:30:34.558Z,11.53
2018-10-21T05:33:03.122Z,11.53
2018-10-21T05:35:32.131Z,11.53
2018-10-21T05:38:00.819Z,11.54
2018-10-21T05:40:29.375Z,11.56
2018-10-21T05:42:57.930Z,11.58
2018-10-21T05:45:26.454Z,11.60
2018-10-21T05:47:55.246Z,11.62
2018-10-21T05:50:23.727Z,11.63
2018-10-21T05:52:52.518Z,11.62
2018-10-21T05:55:22.082Z,11.65
2018-10-21T05:57:51.317Z,11.67
2018-10-21T06:00:20.664Z,11.67
2018-10-21T06:02:49.304Z,11.70
2018-10-21T06:05:41.302Z,11.73
2018-10-21T06:08:10.061Z,11.73
2018-10-21T06:10:38.893Z,11.75
2018-10-21T06:13:07.493Z,11.77
2018-10-21T06:15:36.122Z,11.79
2018-10-21T06:18:07.290Z,11.80
2018-10-21T06:20:37.871Z,11.84
2018-10-21T06:23:06.398Z,11.85
2018-10-21T06:25:34.890Z,11.85
2018-10-21T06:28:03.638Z,11.86
2018-10-21T06:30:32.136Z,11.87
2018-10-21T06:33:00.793Z,11.86
2018-10-21T06:35:29.300Z,11.89
2018-10-21T06:37:57.897Z,11.88
2018-10-21T06:40:26.426Z,11.90
2018-10-21T06:42:55.071Z,11.93
2018-10-21T06:45:23.910Z,11.72
2018-10-21T06:47:52.338Z,12.04
2018-10-21T06:50:21.588Z,12.06
2018-10-21T06:52:50.453Z,12.07
2018-10-21T06:55:19.268Z,12.09
2018-10-21T06:57:47.942Z,12.11
2018-10-21T07:00:17.225Z,12.13
2018-10-21T07:02:46.318Z,12.15
2018-10-21T07:06:35.399Z,12.17
2018-10-21T07:09:06.930Z,12.15
2018-10-21T07:11:35.776Z,11.84
2018-10-21T07:14:04.299Z,12.15
2018-10-21T07:16:33.122Z,12.16
2018-10-21T07:19:01.478Z,12.16
2018-10-21T07:21:29.958Z,12.18
2018-10-21T07:23:58.642Z,12.19
2018-10-21T07:26:27.199Z,12.19
2018-10-21T07:28:55.867Z,11.90
2018-10-21T07:31:24.448Z,12.19
2018-10-21T07:33:53.110Z,12.21
2018-10-21T07:36:21.775Z,12.23
2018-10-21T07:38:50.242Z,12.23
2018-10-21T07:41:18.854Z,12.24
2018-10-21T07:43:47.352Z,12.25
2018-10-21T07:46:16.190Z,12.26
2018-10-21T07:48:44.792Z,12.31
2018-10-21T07:51:13.351Z,12.33
2018-10-21T07:53:42.154Z,12.32
2018-10-21T07:56:10.958Z,12.35
2018-10-21T07:58:39.426Z,12.35
2018-10-21T08:01:08.082Z,12.37
2018-10-21T08:03:36.859Z,12.40
2018-10-21T08:06:30.058Z,12.38
2018-10-21T08:11:28.902Z,12.40
2018-10-21T08:13:57.584Z,12.41
2018-10-21T08:16:26.161Z,12.40
2018-10-21T08:18:54.719Z,12.36
2018-10-21T08:21:23.342Z,12.43
2018-10-21T08:23:51.782Z,12.40
2018-10-21T08:26:20.572Z,12.40
2018-10-21T08:28:49.099Z,12.40
2018-10-21T08:31:18.697Z,12.40
2018-10-21T08:33:47.332Z,12.39
2018-10-21T08:36:15.885Z,12.40
2018-10-21T08:38:44.487Z,12.42
2018-10-21T08:41:13.028Z,12.45
2018-10-21T08:43:42.119Z,12.19
2018-10-21T08:46:10.829Z,12.49
2018-10-21T08:48:39.586Z,12.49
2018-10-21T08:51:08.480Z,12.50
2018-10-21T08:53:37.242Z,12.51
2018-10-21T08:56:06.051Z,12.54
2018-10-21T08:58:34.670Z,12.58
2018-10-21T09:01:03.182Z,12.57
2018-10-21T09:03:31.726Z,12.60
2018-10-21T09:06:00.418Z,12.59
2018-10-21T09:08:29.009Z,12.64
2018-10-21T09:10:57.633Z,12.30
2018-10-21T09:13:26.180Z,12.68
2018-10-21T09:15:54.859Z,12.70
2018-10-21T09:18:23.410Z,12.72
2018-10-21T09:20:51.945Z,12.71
2018-10-21T09:23:21.166Z,12.71
2018-10-21T09:25:49.682Z,12.66
2018-10-21T09:28:18.998Z,12.67
2018-10-21T09:30:47.562Z,12.69
2018-10-21T09:33:16.210Z,12.67
2018-10-21T09:35:44.790Z,12.74
2018-10-21T09:38:13.358Z,12.78
2018-10-21T09:40:41.918Z,12.78
2018-10-21T09:43:10.516Z,12.79
2018-10-21T09:45:39.190Z,12.82
2018-10-21T09:48:07.746Z,12.80
2018-10-21T09:50:36.449Z,12.77
2018-10-21T09:53:04.998Z,12.81
2018-10-21T09:55:33.620Z,12.83
2018-10-21T09:58:02.266Z,12.85
2018-10-21T10:00:35.952Z,12.87
2018-10-21T10:03:06.014Z,12.88
2018-10-21T10:05:34.686Z,12.30
2018-10-21T10:08:03.257Z,12.92
2018-10-21T10:10:32.106Z,12.94
2018-10-21T10:13:00.662Z,12.96
2018-10-21T10:15:29.278Z,12.95
2018-10-21T10:17:57.810Z,12.96
2018-10-21T10:20:26.403Z,12.94
2018-10-21T10:22:55.269Z,12.41
2018-10-21T10:25:23.762Z,12.93
2018-10-21T10:27:52.453Z,12.85
2018-10-21T10:30:21.162Z,12.91
2018-10-21T10:32:49.826Z,12.92
2018-10-21T10:35:18.302Z,12.91
2018-10-21T10:37:46.913Z,12.91
2018-10-21T10:40:15.526Z,12.94
2018-10-21T10:42:44.040Z,12.93
2018-10-21T10:45:12.707Z,12.84
2018-10-21T10:47:41.262Z,12.95
2018-10-21T10:50:11.402Z,12.93
2018-10-21T10:52:40.350Z,12.90
2018-10-21T10:55:09.451Z,12.58
2018-10-21T10:57:37.914Z,12.87
2018-10-21T11:00:08.695Z,12.87
2018-10-21T11:02:37.153Z,12.88
2018-10-21T11:05:07.107Z,12.89
2018-10-21T11:07:35.626Z,12.92
2018-10-21T11:10:04.288Z,12.90
2018-10-21T11:12:32.910Z,12.87
2018-10-21T11:15:01.481Z,12.94
2018-10-21T11:17:30.434Z,12.97
2018-10-21T11:19:58.903Z,12.93
2018-10-21T11:22:27.697Z,12.89
2018-10-21T11:24:57.535Z,12.94
2018-10-21T11:27:26.352Z,12.91
2018-10-21T11:29:55.014Z,12.93
2018-10-21T11:32:23.638Z,12.94
2018-10-21T11:34:52.156Z,12.93
2018-10-21T11:37:20.977Z,12.94
2018-10-21T11:39:49.787Z,12.89
2018-10-21T11:42:18.420Z,12.93
2018-10-21T11:44:47.358Z,12.92
2018-10-21T11:47:15.970Z,12.91
2018-10-21T11:49:44.535Z,12.90
2018-10-21T11:52:13.157Z,12.93
2018-10-21T11:54:41.659Z,12.93
2018-10-21T11:57:10.826Z,12.94
2018-10-21T11:59:39.368Z,12.93
2018-10-21T12:02:08.350Z,12.94
2018-10-21T12:04:36.926Z,12.94
2018-10-21T12:07:05.621Z,12.96
2018-10-21T12:09:34.308Z,12.96
2018-10-21T12:12:03.015Z,12.92
2018-10-21T12:14:31.633Z,12.92
2018-10-21T12:17:00.141Z,12.94
2018-10-21T12:19:29.311Z,12.67
2018-10-21T12:21:57.907Z,12.90
2018-10-21T12:24:27.206Z,12.91
2018-10-21T12:26:55.885Z,12.94
2018-10-21T12:29:24.560Z,12.93
2018-10-21T12:31:53.194Z,12.97
2018-10-21T12:34:21.794Z,12.94
2018-10-21T12:36:50.318Z,12.95
2018-10-21T12:39:18.834Z,12.98
2018-10-21T12:41:47.728Z,12.99
2018-10-21T12:44:16.231Z,12.99
2018-10-21T12:46:45.042Z,13.01
2018-10-21T12:49:13.556Z,13.01
2018-10-21T12:51:42.050Z,13.03
2018-10-21T12:54:10.784Z,13.05
2018-10-21T12:56:39.214Z,13.06
2018-10-21T12:59:08.891Z,13.08
2018-10-21T13:01:37.506Z,13.12
2018-10-21T13:04:06.720Z,13.11
2018-10-21T13:06:35.353Z,13.08
2018-10-21T13:09:05.550Z,13.10
2018-10-21T13:11:34.059Z,13.13
2018-10-21T13:14:03.051Z,13.12
2018-10-21T13:16:31.633Z,13.15
2018-10-21T13:19:00.260Z,13.16
2018-10-21T13:21:28.772Z,13.15
2018-10-21T13:23:57.454Z,13.16
2018-10-21T13:26:25.980Z,13.14
2018-10-21T13:28:54.528Z,13.18
2018-10-21T13:31:24.135Z,13.18
2018-10-21T13:33:52.613Z,13.19
2018-10-21T13:36:21.554Z,13.20
2018-10-21T13:38:50.190Z,13.21
2018-10-21T13:41:18.957Z,13.21
2018-10-21T13:43:47.581Z,13.21
2018-10-21T13:46:16.234Z,13.22
2018-10-21T13:48:44.782Z,13.22
2018-10-21T13:51:13.433Z,13.24
2018-10-21T13:53:43.040Z,13.21
2018-10-21T13:56:11.929Z,13.21
2018-10-21T13:58:40.530Z,13.23
2018-10-21T14:01:09.049Z,13.24
2018-10-21T14:03:37.671Z,13.26
2018-10-21T14:06:06.186Z,13.27
2018-10-21T14:08:34.868Z,13.29
2018-10-21T14:11:03.429Z,13.29
2018-10-21T14:13:31.922Z,13.29
2018-10-21T14:16:02.435Z,13.33
2018-10-21T14:18:33.619Z,13.32
2018-10-21T14:21:02.621Z,13.32
2018-10-21T14:23:31.730Z,13.33
2018-10-21T14:26:00.965Z,13.36
2018-10-21T14:28:29.538Z,13.36
2018-10-21T14:30:58.311Z,13.38
2018-10-21T14:33:26.766Z,13.41
2018-10-21T14:35:55.513Z,13.41
2018-10-21T14:38:24.207Z,13.42
2018-10-21T14:40:52.797Z,13.45
2018-10-21T14:43:21.455Z,13.46
2018-10-21T14:45:50.155Z,13.46
2018-10-21T14:48:19.638Z,13.45
2018-10-21T14:50:48.132Z,13.49
2018-10-21T14:53:18.554Z,13.50
2018-10-21T14:55:47.657Z,13.51
2018-10-21T14:58:16.506Z,13.53
2018-10-21T15:00:45.180Z,13.51
2018-10-21T15:03:13.871Z,13.50
2018-10-21T15:05:42.512Z,13.50
2018-10-21T15:08:11.246Z,13.50
2018-10-21T15:10:39.757Z,13.51
2018-10-21T15:13:08.232Z,13.47
2018-10-21T15:15:37.058Z,13.46
2018-10-21T15:18:05.942Z,13.47
2018-10-21T15:20:35.343Z,13.46
2018-10-21T15:23:04.099Z,13.49
2018-10-21T15:25:33.290Z,13.50
2018-10-21T15:28:01.955Z,13.49
2018-10-21T15:30:30.782Z,13.49
2018-10-21T15:32:59.506Z,13.23
2018-10-21T15:35:28.405Z,13.51
2018-10-21T15:37:57.049Z,13.50
2018-10-21T15:40:26.407Z,13.49
2018-10-21T15:42:55.297Z,13.48
2018-10-21T15:45:24.658Z,13.52
2018-10-21T15:47:53.520Z,13.50
2018-10-21T15:50:22.197Z,13.51
2018-10-21T15:52:51.236Z,13.45
2018-10-21T15:55:19.726Z,13.52
2018-10-21T15:57:48.424Z,13.50
2018-10-21T16:00:17.088Z,13.51
2018-10-21T16:02:45.606Z,13.50
2018-10-21T16:05:15.253Z,13.54
2018-10-21T16:07:43.865Z,13.55
2018-10-21T16:10:12.828Z,13.53
2018-10-21T16:12:41.342Z,13.54
2018-10-21T16:15:12.710Z,13.25
2018-10-21T16:17:41.488Z,13.56
2018-10-21T16:20:10.772Z,13.58
2018-10-21T16:22:40.836Z,13.58
2018-10-21T16:25:12.051Z,13.58
2018-10-21T16:27:41.182Z,13.58
2018-10-21T16:30:13.010Z,13.63
2018-10-21T16:32:42.870Z,13.62
2018-10-21T16:35:11.885Z,13.64
2018-10-21T16:37:41.524Z,13.65
2018-10-21T16:40:12.744Z,13.66
2018-10-21T16:42:41.911Z,13.67
2018-10-21T16:45:11.382Z,13.68
2018-10-21T16:47:40.525Z,13.10
2018-10-21T16:50:12.349Z,13.73
2018-10-21T16:52:42.570Z,13.73
2018-10-21T16:55:11.926Z,13.74
2018-10-21T16:57:40.495Z,13.76
2018-10-21T17:00:11.963Z,13.78
2018-10-21T17:02:40.742Z,13.79
2018-10-21T17:05:09.665Z,13.76
2018-10-21T17:07:38.494Z,13.67
2018-10-21T17:10:08.291Z,13.79
2018-10-21T17:12:36.877Z,13.77
2018-10-21T17:15:06.227Z,13.76
2018-10-21T17:17:34.872Z,13.47
2018-10-21T17:20:03.593Z,13.77
2018-10-21T17:22:32.302Z,13.77
2018-10-21T17:25:00.853Z,13.78
2018-10-21T17:27:29.590Z,13.76
2018-10-21T17:29:58.287Z,13.77
2018-10-21T17:32:26.898Z,13.78
2018-10-21T17:34:55.366Z,13.78
2018-10-21T17:37:23.854Z,13.78
2018-10-21T17:39:52.720Z,13.75
2018-10-21T17:42:21.485Z,13.77
2018-10-21T17:44:50.178Z,13.77
2018-10-21T17:47:18.718Z,13.76
2018-10-21T17:49:47.341Z,13.77
2018-10-21T17:52:15.970Z,13.77
2018-10-21T17:54:44.511Z,13.77
2018-10-21T17:57:13.294Z,13.70
2018-10-21T17:59:41.878Z,13.77
2018-10-21T18:02:10.701Z,13.78
2018-10-21T18:04:39.369Z,13.78
2018-10-21T18:07:08.233Z,13.80
2018-10-21T18:09:36.840Z,13.78
2018-10-21T18:12:05.777Z,13.78
2018-10-21T18:14:34.302Z,13.79
2018-10-21T18:17:03.466Z,13.80
2018-10-21T18:19:33.018Z,13.80
2018-10-21T18:22:01.554Z,13.80
2018-10-21T18:24:30.959Z,13.81
2018-10-21T18:26:59.577Z,13.80
2018-10-21T18:29:28.647Z,13.81
2018-10-21T18:31:57.263Z,13.81
2018-10-21T18:34:26.343Z,13.83
2018-10-21T18:36:54.961Z,13.81
2018-10-21T18:39:23.642Z,13.85
2018-10-21T18:41:52.266Z,13.87
2018-10-21T18:44:21.116Z,13.88
2018-10-21T18:46:50.912Z,13.79
2018-10-21T18:49:19.438Z,13.90
2018-10-21T18:51:48.072Z,13.77
2018-10-21T18:54:17.964Z,13.91
2018-10-21T18:56:46.986Z,13.94
2018-10-21T18:59:15.510Z,13.95
2018-10-21T19:01:44.602Z,13.97
2018-10-21T19:04:13.952Z,13.96
2018-10-21T19:06:42.577Z,13.96
2018-10-21T19:09:12.662Z,13.96
2018-10-21T19:11:41.484Z,13.96
2018-10-21T19:14:10.586Z,13.96
2018-10-21T19:16:39.330Z,13.98
2018-10-21T19:19:08.231Z,13.99
2018-10-21T19:21:36.766Z,13.98
2018-10-21T19:24:05.490Z,13.99
2018-10-21T19:26:34.261Z,13.99
2018-10-21T19:29:03.620Z,13.98
2018-10-21T19:31:32.157Z,13.97
2018-10-21T19:34:01.024Z,13.97
2018-10-21T19:36:29.542Z,13.99
2018-10-21T19:38:58.278Z,13.96
2018-10-21T19:41:26.958Z,13.64
2018-10-21T19:43:55.622Z,13.93
2018-10-21T19:46:24.274Z,13.88
2018-10-21T19:48:54.110Z,13.85
2018-10-21T19:51:22.871Z,13.80
2018-10-21T19:53:51.375Z,13.77
2018-10-21T19:56:20.390Z,13.72
2018-10-21T19:58:48.970Z,13.70
2018-10-21T20:01:18.230Z,13.65
2018-10-21T20:03:46.782Z,13.67
2018-10-21T20:08:36.534Z,13.62
2018-10-21T20:11:05.584Z,13.29
2018-10-21T20:13:34.066Z,13.62
2018-10-21T20:16:02.826Z,13.58
2018-10-21T20:18:31.283Z,13.57
2018-10-21T20:21:00.114Z,13.54
2018-10-21T20:23:28.641Z,13.51
2018-10-21T20:25:57.345Z,13.51
2018-10-21T20:28:25.834Z,13.49
2018-10-21T20:30:54.467Z,13.49
2018-10-21T20:33:23.163Z,13.48
2018-10-21T20:35:51.750Z,13.49
2018-10-21T20:38:20.570Z,13.36
2018-10-21T20:40:49.103Z,13.47
2018-10-21T20:43:17.718Z,13.47
2018-10-21T20:45:46.218Z,13.47
2018-10-21T20:48:14.863Z,13.47
2018-10-21T20:50:43.424Z,13.48
2018-10-21T20:53:11.903Z,13.48
2018-10-21T20:55:40.622Z,13.48
2018-10-21T20:58:09.288Z,13.46
2018-10-21T21:00:37.997Z,13.44
2018-10-21T21:03:06.597Z,13.40
2018-10-21T21:05:35.076Z,13.39
2018-10-21T21:08:03.774Z,13.39
2018-10-21T21:10:32.318Z,13.12
2018-10-21T21:13:01.237Z,13.35
2018-10-21T21:15:29.825Z,13.33
2018-10-21T21:17:58.519Z,13.32
2018-10-21T21:20:27.070Z,13.30
2018-10-21T21:22:55.874Z,13.28
2018-10-21T21:25:24.470Z,13.27
2018-10-21T21:27:53.138Z,13.23
2018-10-21T21:30:21.934Z,12.37
2018-10-21T21:32:50.487Z,13.21
2018-10-21T21:35:19.278Z,13.22
2018-10-21T21:37:47.781Z,13.16
2018-10-21T21:40:16.569Z,13.16
2018-10-21T21:42:45.010Z,13.05
2018-10-21T21:45:13.610Z,13.10
2018-10-21T21:47:42.366Z,13.10
2018-10-21T21:50:10.874Z,13.07
2018-10-21T21:52:40.568Z,13.10
2018-10-21T21:55:09.102Z,13.07
2018-10-21T21:57:37.794Z,13.06
2018-10-21T22:00:09.274Z,13.03
2018-10-21T22:02:38.086Z,12.99
2018-10-21T22:05:07.942Z,12.91
2018-10-21T22:07:37.435Z,12.86
2018-10-21T22:10:07.146Z,12.83
2018-10-21T22:12:35.743Z,12.82
2018-10-21T22:15:04.365Z,12.83
2018-10-21T22:17:33.117Z,12.80
2018-10-21T22:20:01.735Z,12.79
2018-10-21T22:22:30.379Z,12.77
2018-10-21T22:24:59.005Z,12.75
2018-10-21T22:27:27.558Z,12.74
2018-10-21T22:29:56.443Z,12.73
2018-10-21T22:32:25.082Z,12.67
2018-10-21T22:34:53.814Z,12.62
2018-10-21T22:37:22.454Z,12.56
2018-10-21T22:39:51.094Z,12.57
2018-10-21T22:42:19.658Z,12.53
2018-10-21T22:44:48.130Z,12.50
2018-10-21T22:47:16.926Z,12.46
2018-10-21T22:49:45.393Z,12.45
2018-10-21T22:52:14.388Z,12.41
2018-10-21T22:54:42.983Z,12.39
2018-10-21T22:57:19.769Z,12.37
2018-10-21T22:59:50.336Z,12.35
2018-10-21T23:02:18.865Z,12.31
2018-10-21T23:04:47.983Z,12.27
2018-10-21T23:07:16.562Z,12.27
2018-10-21T23:09:45.169Z,12.24
2018-10-21T23:12:14.126Z,12.18
2018-10-21T23:32:01.858Z,11.80
2018-10-21T23:34:30.589Z,11.74
2018-10-21T23:36:59.082Z,11.68
2018-10-21T23:39:28.597Z,11.65
2018-10-21T23:41:57.523Z,11.57
2018-10-21T23:44:26.163Z,11.58
2018-10-21T23:46:54.797Z,11.57
2018-10-21T23:49:23.364Z,11.51
2018-10-21T23:51:52.151Z,10.86
2018-10-21T23:54:20.802Z,11.45
2018-10-21T23:56:49.459Z,11.44
2018-10-21T23:59:18.059Z,11.43
